createdAt,value
2022-10-08T00:03:42.209Z,18.20
2022-10-08T00:08:49.601Z,18.00
2022-10-08T00:13:53.532Z,17.90
2022-10-08T00:19:00.789Z,17.80
2022-10-08T00:24:04.562Z,17.80
2022-10-08T00:29:07.600Z,17.60
2022-10-08T00:34:11.535Z,17.60
2022-10-08T00:39:16.077Z,17.50
2022-10-08T00:44:52.058Z,17.40
2022-10-08T00:49:58.084Z,17.40
2022-10-08T00:54:59.925Z,17.60
2022-10-08T01:00:08.179Z,17.50
2022-10-08T01:05:12.664Z,17.30
2022-10-08T01:10:32.629Z,17.50
2022-10-08T01:15:41.942Z,17.90
2022-10-08T01:21:00.420Z,18.00
2022-10-08T01:26:37.714Z,17.70
2022-10-08T01:31:57.897Z,17.20
2022-10-08T01:37:01.199Z,17.40
2022-10-08T01:42:07.149Z,17.40
2022-10-08T01:47:16.803Z,17.20
2022-10-08T01:52:26.804Z,17.30
2022-10-08T01:57:30.374Z,17.50
2022-10-08T02:02:32.289Z,17.00
2022-10-08T02:07:38.591Z,16.60
2022-10-08T02:12:41.259Z,16.50
2022-10-08T02:17:42.872Z,16.60
2022-10-08T02:23:05.603Z,16.60
2022-10-08T02:28:15.867Z,16.40
2022-10-08T02:33:26.186Z,16.50
2022-10-08T02:38:34.751Z,16.40
2022-10-08T02:43:45.655Z,16.70
2022-10-08T02:48:52.355Z,16.40
2022-10-08T02:53:54.156Z,16.20
2022-10-08T02:58:56.200Z,16.20
2022-10-08T03:04:07.347Z,16.10
2022-10-08T03:09:12.169Z,16.20
2022-10-08T03:14:16.576Z,16.00
2022-10-08T03:19:19.046Z,16.50
2022-10-08T03:24:20.741Z,16.20
2022-10-08T03:29:22.395Z,16.90
2022-10-08T03:34:27.426Z,16.60
2022-10-08T03:39:29.181Z,16.50
2022-10-08T03:44:30.907Z,16.00
2022-10-08T03:49:32.593Z,15.90
2022-10-08T03:54:35.789Z,15.80
2022-10-08T03:59:37.487Z,15.60
2022-10-08T04:04:39.257Z,15.60
2022-10-08T04:09:40.949Z,15.70
2022-10-08T04:14:42.609Z,15.60
2022-10-08T04:19:44.338Z,15.70
2022-10-08T04:24:46.011Z,15.60
2022-10-08T04:29:47.680Z,16.00
2022-10-08T04:34:49.358Z,16.40
2022-10-08T04:39:50.995Z,15.70
2022-10-08T04:44:52.822Z,15.50
2022-10-08T04:49:54.480Z,15.50
2022-10-08T04:54:56.149Z,15.60
2022-10-08T05:00:17.087Z,15.60
2022-10-08T05:05:19.494Z,15.50
2022-10-08T05:10:21.135Z,15.60
2022-10-08T05:15:22.789Z,15.50
2022-10-08T05:20:24.463Z,15.50
2022-10-08T05:25:26.155Z,15.50
2022-10-08T05:30:27.867Z,16.10
2022-10-08T05:35:29.559Z,16.30
2022-10-08T05:40:31.256Z,16.20
2022-10-08T05:45:32.978Z,16.20
2022-10-08T05:50:36.721Z,15.90
2022-10-08T05:55:38.377Z,16.40
2022-10-08T06:00:40.070Z,16.60
2022-10-08T06:05:41.751Z,16.50
2022-10-08T06:11:02.340Z,16.00
2022-10-08T06:16:09.563Z,16.50
2022-10-08T06:21:14.229Z,16.20
2022-10-08T06:26:16.280Z,16.20
2022-10-08T06:31:18.682Z,16.20
2022-10-08T06:36:23.114Z,16.80
2022-10-08T06:41:26.438Z,16.80
2022-10-08T06:46:28.539Z,16.70
2022-10-08T06:51:30.333Z,16.80
2022-10-08T06:56:32.068Z,16.90
2022-10-08T07:01:34.498Z,17.10
2022-10-08T07:06:36.307Z,17.50
2022-10-08T07:11:38.534Z,17.60
2022-10-08T07:16:40.333Z,17.90
2022-10-08T07:21:42.049Z,18.40
2022-10-08T07:26:43.718Z,18.30
2022-10-08T07:31:45.436Z,18.50
2022-10-08T07:36:47.176Z,18.80
2022-10-08T07:41:49.957Z,19.00
2022-10-08T07:46:52.076Z,19.20
2022-10-08T07:51:53.732Z,19.30
2022-10-08T07:56:55.408Z,19.40
2022-10-08T08:01:57.071Z,19.60
2022-10-08T08:06:58.809Z,19.70
2022-10-08T08:12:00.490Z,19.80
2022-10-08T08:17:02.168Z,20.10
2022-10-08T08:22:03.848Z,20.00
2022-10-08T08:27:05.512Z,20.50
2022-10-08T08:32:07.192Z,20.50
2022-10-08T08:37:08.919Z,20.60
2022-10-08T08:42:28.404Z,21.10
2022-10-08T08:47:48.859Z,21.10
2022-10-08T08:52:51.037Z,21.40
2022-10-08T08:58:00.743Z,21.60
2022-10-08T09:03:06.479Z,21.70
2022-10-08T09:08:39.410Z,21.80
2022-10-08T09:13:50.515Z,22.00
2022-10-08T09:18:52.574Z,21.70
2022-10-08T09:23:54.217Z,21.90
2022-10-08T09:28:58.321Z,22.40
2022-10-08T09:34:12.193Z,22.60
2022-10-08T09:39:27.222Z,22.90
2022-10-08T09:44:42.712Z,23.30
2022-10-08T09:49:45.452Z,22.80
2022-10-08T09:54:51.398Z,23.30
2022-10-08T10:00:01.716Z,23.50
2022-10-08T10:05:19.267Z,22.70
2022-10-08T10:10:25.612Z,23.90
2022-10-08T10:15:34.125Z,23.50
2022-10-08T10:20:41.663Z,23.40
2022-10-08T10:26:06.779Z,24.20
2022-10-08T10:31:35.241Z,24.10
2022-10-08T10:36:42.717Z,24.30
2022-10-08T10:41:57.129Z,24.20
2022-10-08T10:47:01.400Z,24.20
2022-10-08T10:52:21.258Z,24.90
2022-10-08T10:57:47.577Z,24.30
2022-10-08T11:02:58.287Z,24.80
2022-10-08T11:08:02.827Z,25.40
2022-10-08T11:13:13.144Z,24.70
2022-10-08T11:18:30.644Z,24.80
2022-10-08T11:24:12.953Z,25.40
2022-10-08T11:29:33.419Z,25.50
2022-10-08T11:34:37.239Z,25.40
2022-10-08T11:39:46.330Z,26.20
2022-10-08T11:44:48.054Z,25.20
2022-10-08T11:49:56.147Z,25.70
2022-10-08T11:54:59.276Z,25.70
2022-10-08T12:00:22.211Z,25.60
2022-10-08T12:05:23.820Z,25.40
2022-10-08T12:10:37.735Z,25.60
2022-10-08T12:15:39.386Z,25.80
2022-10-08T12:20:41.461Z,26.00
2022-10-08T12:26:03.062Z,26.20
2022-10-08T12:31:34.773Z,25.50
2022-10-08T12:37:05.818Z,26.00
2022-10-08T12:42:30.566Z,26.50
2022-10-08T12:47:44.558Z,25.70
2022-10-08T12:52:46.772Z,26.10
2022-10-08T12:57:50.366Z,25.80
2022-10-08T13:03:12.156Z,25.80
2022-10-08T13:08:36.106Z,26.80
2022-10-08T13:13:40.799Z,27.00
2022-10-08T13:18:45.772Z,26.00
2022-10-08T13:23:47.694Z,26.50
2022-10-08T13:29:00.238Z,26.10
2022-10-08T13:34:03.855Z,26.30
2022-10-08T13:39:05.662Z,26.40
2022-10-08T13:44:09.580Z,26.70
2022-10-08T13:49:23.320Z,26.20
2022-10-08T13:54:27.568Z,26.10
2022-10-08T13:59:30.840Z,25.10
2022-10-08T14:04:32.908Z,25.70
2022-10-08T14:09:34.636Z,25.70
2022-10-08T14:14:36.544Z,25.40
2022-10-08T14:19:38.217Z,25.60
2022-10-08T14:24:40.503Z,25.60
2022-10-08T14:29:42.268Z,25.50
2022-10-08T14:34:43.966Z,25.10
2022-10-08T14:39:45.737Z,24.90
2022-10-08T14:44:47.449Z,24.40
2022-10-08T14:49:49.134Z,24.60
2022-10-08T14:54:50.847Z,24.50
2022-10-08T14:59:52.500Z,24.40
2022-10-08T15:04:54.216Z,24.10
2022-10-08T15:09:55.979Z,23.90
2022-10-08T15:14:57.648Z,24.20
2022-10-08T15:19:59.355Z,24.10
2022-10-08T15:25:01.015Z,23.90
2022-10-08T15:30:03.268Z,23.70
2022-10-08T15:35:05.324Z,23.70
2022-10-08T15:40:07.384Z,23.50
2022-10-08T15:45:09.269Z,23.30
2022-10-08T15:50:10.923Z,23.20
2022-10-08T15:55:12.779Z,23.10
2022-10-08T16:00:14.808Z,23.00
2022-10-08T16:05:16.563Z,23.00
2022-10-08T16:10:18.242Z,22.90
2022-10-08T16:15:19.938Z,22.70
2022-10-08T16:20:21.657Z,22.70
2022-10-08T16:25:23.352Z,22.50
2022-10-08T16:30:25.083Z,22.50
2022-10-08T16:35:26.865Z,22.40
2022-10-08T16:40:28.564Z,22.30
2022-10-08T16:45:30.226Z,22.30
2022-10-08T16:50:32.087Z,22.40
2022-10-08T16:55:35.401Z,22.10
2022-10-08T17:00:37.179Z,21.80
2022-10-08T17:05:41.950Z,21.70
2022-10-08T17:10:43.652Z,21.60
2022-10-08T17:15:45.469Z,21.60
2022-10-08T17:20:49.392Z,21.50
2022-10-08T17:25:58.150Z,21.50
2022-10-08T17:31:01.281Z,21.50
2022-10-08T17:36:15.037Z,21.50
2022-10-08T17:41:31.206Z,21.90
2022-10-08T17:46:39.700Z,21.60
2022-10-08T17:51:41.417Z,21.50
2022-10-08T17:56:43.172Z,21.50
2022-10-08T18:01:45.868Z,21.80
2022-10-08T18:06:48.470Z,21.60
2022-10-08T18:11:52.493Z,21.40
2022-10-08T18:16:54.197Z,21.30
2022-10-08T18:21:55.891Z,21.30
2022-10-08T18:26:57.546Z,21.40
2022-10-08T18:31:59.234Z,21.50
2022-10-08T18:37:00.911Z,21.10
2022-10-08T18:42:02.579Z,20.70
2022-10-08T18:47:05.542Z,20.80
2022-10-08T18:52:07.434Z,20.80
2022-10-08T18:57:09.067Z,20.70
2022-10-08T19:02:10.907Z,20.70
2022-10-08T19:07:12.688Z,20.70
2022-10-08T19:12:14.379Z,20.70
2022-10-08T19:17:16.086Z,20.80
2022-10-08T19:22:17.737Z,20.80
2022-10-08T19:27:19.419Z,20.40
2022-10-08T19:32:21.070Z,20.50
2022-10-08T19:37:22.873Z,20.50
2022-10-08T19:42:24.602Z,20.40
2022-10-08T19:47:26.287Z,20.70
2022-10-08T19:52:28.054Z,20.70
2022-10-08T19:57:29.706Z,20.70
2022-10-08T20:02:31.408Z,20.50
2022-10-08T20:07:33.127Z,20.50
2022-10-08T20:12:34.807Z,20.50
2022-10-08T20:17:36.894Z,20.80
2022-10-08T20:22:38.571Z,20.60
2022-10-08T20:27:40.259Z,20.50
2022-10-08T20:32:41.952Z,20.70
2022-10-08T20:37:43.607Z,20.60
2022-10-08T20:42:45.607Z,20.60
2022-10-08T20:47:47.566Z,20.20
2022-10-08T20:52:49.795Z,20.20
2022-10-08T20:57:51.955Z,20.50
2022-10-08T21:02:53.657Z,20.60
2022-10-08T21:07:55.295Z,20.10
2022-10-08T21:12:56.928Z,20.10
2022-10-08T21:17:58.585Z,20.00
2022-10-08T21:23:00.318Z,20.00
2022-10-08T21:28:02.073Z,20.30
2022-10-08T21:33:03.777Z,20.40
2022-10-08T21:38:05.433Z,20.10
2022-10-08T21:43:07.144Z,20.00
2022-10-08T21:48:08.886Z,19.90
2022-10-08T21:53:10.595Z,19.90
2022-10-08T21:58:12.289Z,20.00
2022-10-08T22:03:15.665Z,19.90
2022-10-08T22:08:17.795Z,19.80
2022-10-08T22:13:20.069Z,19.80
2022-10-08T22:18:22.941Z,19.80
2022-10-08T22:23:24.648Z,19.80
2022-10-08T22:28:27.921Z,19.90
2022-10-08T22:33:30.039Z,19.70
2022-10-08T22:38:33.067Z,19.80
2022-10-08T22:43:38.016Z,19.80
2022-10-08T22:48:40.423Z,20.10
2022-10-08T22:53:42.657Z,20.00
2022-10-08T22:58:44.889Z,20.30
2022-10-08T23:03:46.944Z,20.20
2022-10-08T23:08:53.176Z,20.00
2022-10-08T23:13:56.555Z,19.90
2022-10-08T23:19:04.580Z,20.30
2022-10-08T23:24:06.703Z,20.30
2022-10-08T23:29:10.460Z,20.30
2022-10-08T23:34:12.191Z,20.30
2022-10-08T23:39:16.671Z,20.30
2022-10-08T23:44:18.360Z,20.20
2022-10-08T23:49:20.047Z,20.20
2022-10-08T23:54:21.723Z,20.10
2022-10-08T23:59:23.408Z,20.30
